METAR Data
IDs: Format: Raw Decoded Include TAF

Data at: 1548 UTC 03 Dec 2021

KLKV 031453Z AUTO 00000KT 10SM CLR M08/M09 A3023 RMK AO2 SLP282 T10831094 55000 FZRANO
KLKV 031353Z AUTO 15003KT 10SM CLR M07/M09 A3022 RMK AO2 SLP274 T10721089 FZRANO
KLKV 031253Z AUTO 33005KT 10SM CLR M07/M08 A3023 RMK AO2 SLP269 T10721083 FZRANO
KLKV 031153Z AUTO 28003KT 10SM CLR M07/M08 A3023 RMK AO2 SLP255 T10721083 11039 21072 58004 FZRANO
KLKV 031053Z AUTO 35004KT 10SM CLR M07/M08 A3025 RMK AO2 SLP254 T10671078 FZRANO
KLKV 030953Z AUTO 16003KT 10SM CLR M06/M07 A3024 RMK AO2 SLP251 T10611072 FZRANO
KLKV 030753Z AUTO 34003KT 10SM CLR M04/M05 A3025 RMK AO2 SLP260 T10441050 401611067 FZRANO
KLKV 030653Z AUTO 32004KT 10SM CLR M04/M06 A3026 RMK AO2 SLP270 T10441056 FZRANO
KLKV 030553Z AUTO 36003KT 10SM CLR M04/M05 A3026 RMK AO2 SLP272 T10391050 10133 21039 51008 FZRANO
KLKV 030453Z AUTO 30006KT 10SM CLR M02/M04 A3025 RMK AO2 SLP271 T10221039 FZRANO
KLKV 030353Z AUTO 34004KT 10SM CLR M02/M03 A3024 RMK AO2 SLP285 T10171033 FZRANO
KLKV 030253Z AUTO 32007KT 10SM CLR 00/M03 A3023 RMK AO2 SLP280 T00001033 53010 FZRANO
KLKV 030153Z AUTO 11008KT 10SM CLR 02/M02 A3021 RMK AO2 SLP266 T00221022 FZRANO
KLKV 030053Z AUTO 10004KT 10SM CLR 06/M02 A3020 RMK AO2 SLP258 T00561017
KLKV 022353Z AUTO 21005KT 10SM CLR 14/M01 A3019 RMK AO2 SLP238 T01391011 10161 20056 56008
KLKV 022253Z AUTO 16003KT 10SM CLR 16/M02 A3019 RMK AO2 SLP234 T01611017
KLKV 022153Z AUTO 15005KT 10SM CLR 16/M01 A3020 RMK AO2 SLP238 T01561011
KLKV 022053Z AUTO 16006KT 10SM CLR 14/M01 A3022 RMK AO2 SLP245 T01441011 58017
KLKV 021953Z AUTO 12003KT 10SM CLR 12/M01 A3025 RMK AO2 SLP259 T01221011
KLKV 021853Z AUTO 00000KT 10SM CLR 08/M01 A3028 RMK AO2 SLP275 T00831006
KLKV 021753Z AUTO 00000KT 10SM CLR 06/M01 A3028 RMK AO2 SLP280 T00561006 10056 21067 50006
KLKV 021653Z AUTO 00000KT 10SM CLR 03/00 A3028 RMK AO2 SLP285 T00280000
KLKV 021553Z AUTO 26003KT 10SM CLR M05/M06 A3026 RMK AO2 SLP287 T10501056 FZRANO
KLKV 021453Z AUTO 00000KT 10SM CLR M07/M08 A3026 RMK AO2 SLP289 T10671078 53002 FZRANO
KLKV 021353Z AUTO 00000KT 10SM CLR M06/M07 A3025 RMK AO2 SLP281 T10611067 FZRANO
KLKV 021253Z AUTO VRB05KT 10SM CLR M07/M08 A3025 RMK AO2 SLP272 T10671078 FZRANO
KLKV 021153Z AUTO 00000KT 10SM CLR M06/M07 A3025 RMK AO2 SLP258 T10561067 11039 21056 58007 FZRANO
KLKV 021053Z AUTO 00000KT 10SM CLR M06/M07 A3027 RMK AO2 SLP264 T10561067 FZRANO
KLKV 020953Z AUTO 33005KT 10SM CLR M06/M07 A3027 RMK AO2 SLP262 T10561067 FZRANO
KLKV 020853Z AUTO 00000KT 10SM CLR M04/M06 A3027 RMK AO2 SLP260 T10441061 55000 FZRANO
KLKV 020753Z AUTO 34006KT 10SM CLR M04/M06 A3027 RMK AO2 SLP263 T10441056 401721044 FZRANO
KLKV 020653Z AUTO 30005KT 10SM CLR M04/M05 A3027 RMK AO2 SLP267 T10391050 FZRANO
KLKV 020553Z AUTO 35006KT 10SM CLR M04/M05 A3028 RMK AO2 SLP277 T10391050 10139 21039 53003 FZRANO
KLKV 020453Z AUTO 31004KT 10SM CLR M03/M04 A3027 RMK AO2 SLP279 T10281044 FZRANO
KLKV 020353Z AUTO 34007KT 10SM CLR 00/M02 A3027 RMK AO2 SLP282 T00001017 FZRANO